Las Cruces, NM

6:05 PM MDT on April 25, 2015 (GMT -0600)
northridge estates | | Change Station
CLOSE
Current Station
Personal Weather Station
Location: Las Cruces, NM
Elevation: 4082 ft
Nearby Weather Stations
Active Advisory: Wind Advisory

Elev 4082 ft 32.35 °N, 106.77 °W | Updated 2 seconds ago

Clear
Clear
76.9 °F
Feels Like 77 °F
N
5.6
Wind Variable Wind from WSW
Gusts 10.1 mph

Today
High -- | Low -- °F
--% Chance of Precip.
Yesterday
High -- | Low -- °F
Precip. -- in
6:26 AM 7:43 PM
Waxing Crescent, 50% visible
Pressure 29.83 in
Visibility 10.0 miles
Clouds Clear
Heat Index 77 °F
Dew Point 26 °F
Humidity 16%
Rainfall 0.00 in
Snow Depth Not available.
UV 2 out of 12
Pollen 8.70 out of 12
Air Quality Not available.
Flu Activity Local Activity
METAR KLRU 252355Z AUTO 26019G27KT 10SM CLR 23/M08 A2983 RMK AO2 T02311080 10254 20203

More Conditions Fewer Conditions

Pressure 29.83 in
Visibility 10.0 miles
Clouds Clear
Heat Index 77 °F
Dew Point 26 °F
Humidity 16%
Rainfall 0.00 in
Snow Depth Not available.
UV 2 out of 12
Pollen 8.70 out of 12
Air Quality Not available.
Flu Activity Local Activity
METAR KLRU 252355Z AUTO 26019G27KT 10SM CLR 23/M08 A2983 RMK AO2 T02311080 10254 20203

More Conditions Fewer Conditions

10-Day Weather Forecast

Almanac

Astronomy

Apr. 25, 2015 Rise Set
Actual Time
Civil Twilight
Nautical Twilight
Astronomical Twilight
Moon
Length of Visible Light
Length of Day
Tomorrow will be .
, % of the Moon is Illuminated

Today's Extremes

State Highs State Lows

Community

WunderPhotos

Upload Photos

1,816,853 photos uploaded!

WunderBlogs® & News

Nearby

Air Quality

  Air Quality AQ Index Pollutant
Not available.

Snow Depth

Station Depth Elevation

Earthquake Activity

City Distance Mag. Time & Date
Minimum magnitude displayed is 2.5.

Coastal Water Temperatures

Place Temperature

Stations

Nearby Weather Stations

Station Location Temp. Windchill Dew Point Humidity Wind Precip. Elev Updated Type
                   
Wind Advisory
Statement as of 3:16 PM MDT on April 25, 2015

... Wind Advisory in effect from 10 am to 9 PM MDT Sunday...

The National Weather Service in El Paso TX/Santa Teresa has
issued a Wind Advisory... which is in effect from 10 am to 9 PM
MDT Sunday.

* Event: strong west winds of 25 to 35 mph with gusts to 45 mph.

* Timing: winds will increase during the late morning and continue
          into the early evening hours.

* Impact: strong cross winds may impact high profile vehicles.
          Light... unsecured objects may be scattered by the winds.

* Visibility: localized blowing dust may occur and reduced
              visibilities to 1 to 3 miles.

Precautionary/preparedness actions...

A Wind Advisory means that winds of 35 mph are expected. Winds
this strong can make driving difficult... especially for high
profile vehicles. Use extra caution.


26